createdAt,value
2023-01-09T00:01:12.306Z,2.82
2023-01-09T00:03:39.136Z,2.76
2023-01-09T00:06:06.166Z,2.63
2023-01-09T00:08:33.003Z,2.51
2023-01-09T00:10:59.902Z,2.49
2023-01-09T00:13:26.792Z,2.52
2023-01-09T00:15:53.592Z,2.51
2023-01-09T00:18:20.471Z,2.49
2023-01-09T00:20:47.293Z,2.52
2023-01-09T00:23:14.112Z,2.55
2023-01-09T00:28:25.680Z,2.56
2023-01-09T00:30:57.699Z,2.55
2023-01-09T00:33:33.591Z,2.47
2023-01-09T00:36:00.647Z,2.43
2023-01-09T00:38:27.602Z,2.40
2023-01-09T00:40:55.684Z,2.41
2023-01-09T00:43:26.947Z,2.42
2023-01-09T00:45:53.856Z,2.42
2023-01-09T00:48:27.018Z,2.44
2023-01-09T00:50:58.040Z,2.45
2023-01-09T00:53:29.515Z,2.39
2023-01-09T00:56:00.365Z,2.27
2023-01-09T00:58:27.298Z,2.18
2023-01-09T01:00:54.473Z,2.10
2023-01-09T01:03:21.381Z,2.13
2023-01-09T01:06:06.807Z,2.20
2023-01-09T01:08:33.610Z,2.23
2023-01-09T01:11:05.520Z,2.26
2023-01-09T01:13:32.414Z,2.25
2023-01-09T01:15:59.241Z,2.18
2023-01-09T01:18:26.125Z,2.11
2023-01-09T01:20:53.043Z,2.15
2023-01-09T01:23:19.855Z,2.20
2023-01-09T01:25:46.951Z,2.25
2023-01-09T01:28:14.005Z,2.28
2023-01-09T01:30:42.295Z,2.26
2023-01-09T01:33:10.636Z,2.16
2023-01-09T01:35:38.079Z,2.11
2023-01-09T01:38:05.327Z,2.11
2023-01-09T01:40:32.892Z,2.13
2023-01-09T01:42:59.736Z,2.17
2023-01-09T01:45:29.155Z,2.17
2023-01-09T01:48:02.409Z,2.21
2023-01-09T01:50:34.922Z,2.26
2023-01-09T01:53:04.199Z,2.24
2023-01-09T01:55:33.764Z,2.21
2023-01-09T01:58:04.443Z,2.22
2023-01-09T02:00:35.457Z,2.19
2023-01-09T02:03:03.105Z,2.22
2023-01-09T02:05:30.799Z,2.25
2023-01-09T02:07:57.731Z,2.28
2023-01-09T02:10:25.760Z,2.28
2023-01-09T02:12:52.692Z,2.26
2023-01-09T02:15:20.810Z,2.22
2023-01-09T02:17:56.682Z,2.22
2023-01-09T02:20:47.801Z,2.22
2023-01-09T02:23:33.086Z,2.16
2023-01-09T02:26:27.340Z,2.11
2023-01-09T02:29:25.178Z,2.02
2023-01-09T02:32:10.104Z,1.87
2023-01-09T02:34:48.734Z,1.80
2023-01-09T02:37:33.946Z,1.78
2023-01-09T02:40:16.417Z,1.78
2023-01-09T02:42:45.866Z,1.77
2023-01-09T02:45:12.675Z,1.70
2023-01-09T02:47:44.135Z,1.67
2023-01-09T02:50:21.330Z,1.69
2023-01-09T02:53:09.855Z,1.72
2023-01-09T02:56:15.773Z,1.72
2023-01-09T02:58:51.706Z,1.75
2023-01-09T03:01:21.425Z,1.80
2023-01-09T03:04:21.482Z,1.86
2023-01-09T03:07:02.976Z,1.91
2023-01-09T03:09:34.494Z,1.87
2023-01-09T03:12:09.575Z,1.78
2023-01-09T03:14:42.521Z,1.70
2023-01-09T03:17:14.212Z,1.68
2023-01-09T03:19:42.930Z,1.72
2023-01-09T03:22:09.794Z,1.72
2023-01-09T03:24:38.953Z,1.76
2023-01-09T03:27:08.474Z,1.82
2023-01-09T03:29:35.933Z,1.87
2023-01-09T03:32:02.710Z,1.89
2023-01-09T03:34:29.538Z,1.86
2023-01-09T03:36:56.354Z,1.80
2023-01-09T03:39:23.204Z,1.78
2023-01-09T03:41:50.134Z,1.75
2023-01-09T03:44:17.072Z,1.74
2023-01-09T03:46:43.946Z,1.74
2023-01-09T03:49:10.852Z,1.75
2023-01-09T03:51:37.759Z,1.74
2023-01-09T03:54:04.688Z,1.73
2023-01-09T03:56:31.488Z,1.76
2023-01-09T03:58:58.331Z,1.76
2023-01-09T04:01:25.292Z,1.74
2023-01-09T04:03:52.292Z,1.77
2023-01-09T04:06:19.221Z,1.79
2023-01-09T04:08:46.580Z,1.70
2023-01-09T04:11:13.427Z,1.64
2023-01-09T04:13:40.397Z,1.65
2023-01-09T04:16:07.555Z,1.73
2023-01-09T04:18:34.394Z,1.81
2023-01-09T04:21:01.233Z,1.84
2023-01-09T04:23:28.030Z,1.83
2023-01-09T04:25:54.818Z,1.87
2023-01-09T04:28:21.638Z,1.93
2023-01-09T04:30:48.443Z,2.01
2023-01-09T04:33:15.202Z,2.03
2023-01-09T04:35:42.035Z,2.06
2023-01-09T04:38:08.905Z,2.09
2023-01-09T04:40:35.731Z,2.05
2023-01-09T04:43:02.519Z,2.04
2023-01-09T04:45:29.482Z,2.03
2023-01-09T04:47:56.444Z,2.05
2023-01-09T04:50:23.329Z,2.08
2023-01-09T04:52:50.090Z,2.12
2023-01-09T04:55:17.032Z,2.15
2023-01-09T04:57:43.887Z,2.19
2023-01-09T05:00:12.498Z,2.20
2023-01-09T05:02:39.763Z,2.24
2023-01-09T05:05:11.155Z,2.27
2023-01-09T05:07:38.430Z,2.14
2023-01-09T05:10:06.045Z,2.09
2023-01-09T05:12:34.783Z,2.09
2023-01-09T05:15:01.950Z,2.04
2023-01-09T05:17:29.259Z,1.96
2023-01-09T05:20:16.215Z,1.92
2023-01-09T05:22:42.950Z,1.84
2023-01-09T05:25:10.201Z,1.84
2023-01-09T05:27:37.053Z,1.89
2023-01-09T05:30:04.272Z,1.95
2023-01-09T05:32:31.090Z,1.96
2023-01-09T05:34:58.187Z,1.99
2023-01-09T05:37:25.021Z,1.94
2023-01-09T05:39:51.832Z,1.90
2023-01-09T05:42:18.658Z,1.88
2023-01-09T05:44:45.473Z,1.85
2023-01-09T05:47:12.299Z,1.88
2023-01-09T05:49:39.269Z,1.88
2023-01-09T05:52:06.465Z,1.83
2023-01-09T05:54:33.326Z,1.84
2023-01-09T05:57:00.137Z,1.85
2023-01-09T05:59:27.070Z,1.83
2023-01-09T06:01:54.472Z,1.76
2023-01-09T06:04:21.834Z,1.71
2023-01-09T06:06:48.758Z,1.67
2023-01-09T06:09:15.654Z,1.67
2023-01-09T06:11:42.508Z,1.74
2023-01-09T06:14:09.403Z,1.86
2023-01-09T06:16:36.289Z,1.92
2023-01-09T06:19:03.155Z,1.99
2023-01-09T06:21:30.161Z,2.02
2023-01-09T06:23:56.997Z,2.06
2023-01-09T06:26:24.832Z,2.16
2023-01-09T06:28:51.769Z,2.29
2023-01-09T06:31:18.627Z,2.45
2023-01-09T06:33:45.512Z,2.64
2023-01-09T06:36:12.295Z,3.11
2023-01-09T06:38:39.168Z,3.65
2023-01-09T06:41:06.353Z,4.19
2023-01-09T06:43:33.170Z,4.80
2023-01-09T06:46:00.127Z,5.26
2023-01-09T06:48:27.063Z,5.51
2023-01-09T06:50:54.667Z,5.77
2023-01-09T06:53:21.539Z,6.03
2023-01-09T06:55:48.450Z,6.19
2023-01-09T06:58:15.355Z,6.47
2023-01-09T07:00:42.478Z,6.94
2023-01-09T07:03:10.302Z,7.29
2023-01-09T07:05:42.633Z,7.73
2023-01-09T07:08:09.679Z,8.13
2023-01-09T07:10:36.903Z,8.66
2023-01-09T07:13:03.803Z,9.23
2023-01-09T07:15:30.757Z,9.69
2023-01-09T07:17:57.674Z,10.20
2023-01-09T07:20:24.542Z,10.55
2023-01-09T07:22:51.596Z,10.82
2023-01-09T07:25:18.502Z,11.11
2023-01-09T07:27:45.481Z,11.22
2023-01-09T07:30:12.993Z,11.26
2023-01-09T07:32:41.146Z,11.55
2023-01-09T07:35:10.300Z,12.06
2023-01-09T07:37:37.258Z,12.88
2023-01-09T07:40:04.768Z,13.84
2023-01-09T07:42:31.597Z,14.69
2023-01-09T07:44:58.568Z,15.26
2023-01-09T07:47:25.356Z,15.72
2023-01-09T07:49:52.314Z,15.64
2023-01-09T07:52:19.148Z,15.00
2023-01-09T07:54:45.989Z,14.37
2023-01-09T07:57:12.847Z,13.80
2023-01-09T07:59:39.819Z,13.32
2023-01-09T08:02:07.332Z,12.86
2023-01-09T08:04:34.301Z,12.43
2023-01-09T08:07:03.352Z,12.30
2023-01-09T08:09:30.818Z,12.49
2023-01-09T08:11:57.825Z,12.31
2023-01-09T08:14:24.727Z,11.99
2023-01-09T08:16:51.572Z,11.69
2023-01-09T08:19:18.356Z,11.48
2023-01-09T08:21:45.155Z,11.49
2023-01-09T08:24:12.049Z,11.28
2023-01-09T08:26:38.946Z,11.10
2023-01-09T08:29:06.770Z,10.89
2023-01-09T08:31:33.657Z,10.75
2023-01-09T08:34:00.564Z,10.78
2023-01-09T08:36:27.663Z,10.78
2023-01-09T08:38:55.661Z,10.82
2023-01-09T08:41:41.085Z,11.04
2023-01-09T08:44:26.814Z,12.28
2023-01-09T08:47:05.747Z,13.74
2023-01-09T08:49:38.164Z,14.67
2023-01-09T08:52:06.727Z,16.37
2023-01-09T08:54:34.169Z,17.52
2023-01-09T08:57:00.969Z,18.67
2023-01-09T08:59:28.589Z,19.90
2023-01-09T09:01:55.639Z,20.33
2023-01-09T09:04:22.480Z,20.18
2023-01-09T09:06:49.492Z,19.87
2023-01-09T09:09:16.484Z,19.40
2023-01-09T09:11:43.590Z,18.96
2023-01-09T09:14:29.066Z,18.43
2023-01-09T09:16:55.932Z,17.82
2023-01-09T09:19:22.962Z,17.41
2023-01-09T09:21:49.810Z,17.01
2023-01-09T09:24:16.653Z,16.64
2023-01-09T09:26:44.696Z,16.29
2023-01-09T09:29:12.134Z,16.04
2023-01-09T09:31:39.312Z,15.84
2023-01-09T09:34:13.440Z,15.56
2023-01-09T09:36:40.294Z,15.35
2023-01-09T09:39:07.579Z,15.15
2023-01-09T09:42:20.503Z,14.91
2023-01-09T09:44:53.958Z,14.29
2023-01-09T09:47:29.681Z,13.51
2023-01-09T09:50:09.466Z,13.19
2023-01-09T09:52:48.751Z,12.99
2023-01-09T09:55:32.398Z,12.98
2023-01-09T09:58:03.640Z,12.83
2023-01-09T10:00:31.121Z,12.57
2023-01-09T10:02:58.152Z,12.46
2023-01-09T10:05:30.175Z,12.51
2023-01-09T10:08:14.834Z,12.46
2023-01-09T10:10:53.314Z,12.49
2023-01-09T10:13:43.573Z,12.52
2023-01-09T10:16:32.375Z,12.45
2023-01-09T10:19:22.746Z,12.16
2023-01-09T10:21:58.802Z,11.90
2023-01-09T10:24:42.311Z,11.64
2023-01-09T10:27:33.339Z,11.13
2023-01-09T10:30:08.458Z,10.90
2023-01-09T10:32:40.812Z,10.84
2023-01-09T10:35:23.088Z,10.82
2023-01-09T10:37:53.401Z,10.94
2023-01-09T10:40:35.654Z,11.09
2023-01-09T10:43:26.638Z,11.22
2023-01-09T10:48:55.585Z,11.27
2023-01-09T10:55:39.935Z,11.19
2023-01-09T10:58:13.929Z,11.20
2023-01-09T11:00:41.617Z,11.09
2023-01-09T11:03:16.843Z,11.00
2023-01-09T11:05:44.710Z,10.93
2023-01-09T11:08:23.422Z,10.81
2023-01-09T11:10:53.791Z,10.61
2023-01-09T11:13:35.304Z,10.40
2023-01-09T11:16:10.997Z,10.21
2023-01-09T11:18:47.857Z,10.14
2023-01-09T11:21:31.051Z,10.05
2023-01-09T11:24:27.891Z,9.89
2023-01-09T11:27:14.800Z,9.92
2023-01-09T11:29:42.733Z,9.86
2023-01-09T11:32:23.649Z,9.86
2023-01-09T11:34:51.147Z,9.91
2023-01-09T11:37:27.844Z,9.99
2023-01-09T11:39:56.654Z,9.99
2023-01-09T11:42:48.151Z,9.97
2023-01-09T11:45:20.900Z,9.98
2023-01-09T11:47:47.870Z,9.96
2023-01-09T11:50:25.286Z,9.82
2023-01-09T11:53:15.244Z,9.75
2023-01-09T11:55:43.550Z,9.69
2023-01-09T11:58:15.234Z,9.65
2023-01-09T12:01:11.149Z,9.58
2023-01-09T12:04:15.274Z,9.47
2023-01-09T12:06:53.973Z,9.42
2023-01-09T12:09:44.105Z,9.46
2023-01-09T12:12:35.493Z,9.41
2023-01-09T12:15:10.021Z,9.35
2023-01-09T12:17:45.204Z,9.28
2023-01-09T12:20:53.378Z,9.19
2023-01-09T12:23:38.936Z,9.17
2023-01-09T12:26:24.442Z,9.18
2023-01-09T12:29:09.252Z,9.21
2023-01-09T12:31:42.206Z,9.26
2023-01-09T12:34:27.844Z,9.27
2023-01-09T12:37:25.142Z,9.23
2023-01-09T12:39:54.927Z,9.18
2023-01-09T12:42:57.779Z,9.15
2023-01-09T12:45:36.548Z,9.17
2023-01-09T12:48:40.335Z,9.19
2023-01-09T12:54:46.457Z,8.94
2023-01-09T13:00:07.583Z,9.01
2023-01-09T13:02:36.674Z,9.01
2023-01-09T13:05:15.905Z,9.01
2023-01-09T13:07:48.439Z,8.93
2023-01-09T13:10:33.310Z,8.83
2023-01-09T13:13:06.562Z,8.80
2023-01-09T13:15:39.763Z,8.77
2023-01-09T13:18:16.162Z,8.58
2023-01-09T13:20:50.589Z,8.57
2023-01-09T13:23:32.488Z,8.58
2023-01-09T13:26:06.525Z,8.60
2023-01-09T13:28:47.231Z,8.57
2023-01-09T13:31:28.174Z,8.50
2023-01-09T13:33:58.259Z,8.49
2023-01-09T13:36:31.416Z,8.51
2023-01-09T13:38:59.953Z,8.52
2023-01-09T13:41:47.877Z,8.49
2023-01-09T13:44:25.412Z,8.44
2023-01-09T13:46:55.134Z,8.40
2023-01-09T13:49:36.866Z,8.38
2023-01-09T13:52:22.282Z,8.30
2023-01-09T13:55:02.645Z,8.25
2023-01-09T13:57:35.146Z,8.24
2023-01-09T14:00:07.822Z,8.22
2023-01-09T14:02:38.549Z,8.18
2023-01-09T14:05:12.198Z,8.16
2023-01-09T14:07:41.462Z,8.03
2023-01-09T14:10:21.059Z,7.96
2023-01-09T14:12:48.477Z,8.01
2023-01-09T14:15:35.898Z,8.02
2023-01-09T14:18:04.989Z,7.95
2023-01-09T14:20:41.879Z,7.89
2023-01-09T14:23:42.115Z,7.79
2023-01-09T14:25:56.943Z,7.72
2023-01-09T14:28:28.819Z,7.68
2023-01-09T14:30:55.529Z,7.59
2023-01-09T14:33:23.625Z,7.53
2023-01-09T14:36:16.687Z,7.56
2023-01-09T14:38:50.458Z,7.57
2023-01-09T14:41:43.150Z,7.50
2023-01-09T14:44:38.798Z,7.49
2023-01-09T14:47:11.129Z,7.45
2023-01-09T14:49:43.786Z,7.37
2023-01-09T14:52:23.842Z,7.36
2023-01-09T14:54:52.325Z,7.35
2023-01-09T14:57:36.802Z,7.29
2023-01-09T15:00:16.011Z,7.27
2023-01-09T15:02:43.855Z,7.25
2023-01-09T15:05:18.518Z,7.21
2023-01-09T15:07:52.772Z,7.17
2023-01-09T15:10:23.390Z,7.12
2023-01-09T15:12:53.776Z,7.05
2023-01-09T15:15:22.617Z,6.95
2023-01-09T15:17:55.836Z,6.96
2023-01-09T15:20:31.471Z,6.92
2023-01-09T15:23:04.346Z,6.89
2023-01-09T15:25:38.787Z,6.83
2023-01-09T15:28:24.045Z,6.73
2023-01-09T15:30:58.346Z,6.65
2023-01-09T15:33:25.509Z,6.58
2023-01-09T15:35:55.143Z,6.47
2023-01-09T15:38:25.239Z,6.49
2023-01-09T15:40:59.222Z,6.52
2023-01-09T15:43:29.398Z,6.52
2023-01-09T15:45:57.109Z,6.52
2023-01-09T15:48:32.541Z,6.53
2023-01-09T15:51:17.021Z,6.57
2023-01-09T15:53:46.864Z,6.56
2023-01-09T15:56:24.146Z,6.53
2023-01-09T15:58:52.970Z,6.44
2023-01-09T16:01:33.954Z,6.40
2023-01-09T16:04:03.720Z,6.40
2023-01-09T16:06:33.082Z,6.39
2023-01-09T16:09:00.893Z,6.37
2023-01-09T16:11:32.239Z,6.30
2023-01-09T16:14:13.505Z,6.30
2023-01-09T16:16:41.481Z,6.30
2023-01-09T16:19:46.999Z,6.27
2023-01-09T16:22:30.128Z,6.30
2023-01-09T16:25:02.009Z,6.18
2023-01-09T16:27:36.061Z,6.07
2023-01-09T16:30:22.811Z,6.07
2023-01-09T16:32:52.799Z,6.09
2023-01-09T16:35:22.069Z,6.07
2023-01-09T16:37:49.119Z,5.95
2023-01-09T16:40:18.809Z,5.95
2023-01-09T16:43:01.022Z,5.99
2023-01-09T16:45:31.641Z,5.98
2023-01-09T16:47:59.155Z,5.92
2023-01-09T16:50:26.440Z,5.90
2023-01-09T16:52:53.418Z,5.87
2023-01-09T16:55:20.337Z,5.90
2023-01-09T16:57:47.543Z,5.89
2023-01-09T17:00:17.970Z,5.90
2023-01-09T17:02:45.619Z,5.87
2023-01-09T17:05:12.779Z,5.86
2023-01-09T17:07:39.839Z,5.82
2023-01-09T17:10:07.284Z,5.85
2023-01-09T17:12:34.059Z,5.90
2023-01-09T17:15:02.580Z,5.92
2023-01-09T17:17:29.517Z,5.91
2023-01-09T17:19:56.326Z,5.93
2023-01-09T17:22:23.227Z,5.94
2023-01-09T17:25:09.104Z,5.95
2023-01-09T17:27:55.899Z,5.89
2023-01-09T17:30:23.202Z,5.86
2023-01-09T17:32:52.420Z,5.85
2023-01-09T17:35:19.398Z,5.85
2023-01-09T17:37:46.339Z,5.73
2023-01-09T17:40:21.759Z,5.65
2023-01-09T17:42:48.741Z,5.65
2023-01-09T17:45:18.668Z,5.66
2023-01-09T17:47:45.631Z,5.66
2023-01-09T17:50:20.756Z,5.67
2023-01-09T17:52:51.369Z,5.71
2023-01-09T17:55:18.440Z,5.67
2023-01-09T17:57:46.028Z,5.66
2023-01-09T18:00:36.961Z,5.69
2023-01-09T18:03:05.384Z,5.74
2023-01-09T18:05:32.525Z,5.68
2023-01-09T18:07:59.669Z,5.68
2023-01-09T18:10:30.107Z,5.69
2023-01-09T18:12:57.123Z,5.72
2023-01-09T18:15:24.578Z,5.69
2023-01-09T18:17:52.334Z,5.60
2023-01-09T18:20:19.491Z,5.48
2023-01-09T18:22:47.768Z,5.45
2023-01-09T18:25:14.878Z,5.49
2023-01-09T18:27:41.867Z,5.50
2023-01-09T18:30:09.602Z,5.54
2023-01-09T18:32:37.203Z,5.56
2023-01-09T18:35:05.181Z,5.59
2023-01-09T18:37:32.623Z,5.59
2023-01-09T18:39:59.870Z,5.59
2023-01-09T18:42:29.056Z,5.60
2023-01-09T18:44:59.754Z,5.55
2023-01-09T18:47:26.644Z,5.49
2023-01-09T18:49:53.692Z,5.51
2023-01-09T18:52:20.685Z,5.54
2023-01-09T18:54:48.811Z,5.51
2023-01-09T18:57:15.753Z,5.51
2023-01-09T18:59:42.693Z,5.49
2023-01-09T19:02:20.184Z,5.37
2023-01-09T19:04:47.139Z,5.33
2023-01-09T19:07:14.312Z,5.38
2023-01-09T19:09:42.103Z,5.43
2023-01-09T19:12:10.835Z,5.45
2023-01-09T19:14:38.557Z,5.44
2023-01-09T19:17:05.751Z,5.46
2023-01-09T19:19:33.985Z,5.48
2023-01-09T19:22:00.932Z,5.48
2023-01-09T19:24:28.009Z,5.47
2023-01-09T19:26:55.085Z,5.46
2023-01-09T19:29:21.946Z,5.42
2023-01-09T19:31:49.064Z,5.44
2023-01-09T19:34:17.041Z,5.42
2023-01-09T19:36:44.814Z,5.42
2023-01-09T19:39:12.190Z,5.41
2023-01-09T19:41:39.735Z,5.40
2023-01-09T19:44:07.101Z,5.40
2023-01-09T19:46:59.127Z,5.33
2023-01-09T19:49:26.398Z,5.34
2023-01-09T19:51:55.919Z,5.40
2023-01-09T19:54:25.804Z,5.49
2023-01-09T19:56:56.841Z,5.53
2023-01-09T20:02:34.448Z,5.60
2023-01-09T20:05:01.409Z,5.59
2023-01-09T20:07:28.430Z,5.57
2023-01-09T20:09:56.141Z,5.48
2023-01-09T20:12:23.199Z,5.41
2023-01-09T20:14:50.151Z,5.45
2023-01-09T20:17:17.982Z,5.46
2023-01-09T20:19:45.622Z,5.44
2023-01-09T20:22:13.091Z,5.43
2023-01-09T20:24:40.360Z,5.38
2023-01-09T20:27:07.669Z,5.38
2023-01-09T20:29:34.706Z,5.40
2023-01-09T20:32:05.625Z,5.37
2023-01-09T20:34:32.629Z,5.37
2023-01-09T20:36:59.647Z,5.33
2023-01-09T20:39:26.656Z,5.33
2023-01-09T20:41:53.707Z,5.27
2023-01-09T20:44:20.791Z,5.23
2023-01-09T20:46:48.213Z,5.23
2023-01-09T20:49:18.410Z,5.23
2023-01-09T20:51:48.598Z,5.24
2023-01-09T20:54:18.770Z,5.26
2023-01-09T20:56:45.728Z,5.22
2023-01-09T20:59:17.947Z,5.16
2023-01-09T21:01:45.168Z,5.13
2023-01-09T21:04:12.187Z,5.18
2023-01-09T21:06:39.262Z,5.16
2023-01-09T21:09:06.756Z,5.11
2023-01-09T21:11:34.200Z,5.15
2023-01-09T21:14:01.113Z,5.13
2023-01-09T21:16:29.448Z,5.12
2023-01-09T21:18:56.461Z,5.09
2023-01-09T21:21:27.419Z,5.10
2023-01-09T21:23:57.619Z,5.01
2023-01-09T21:26:27.708Z,4.98
2023-01-09T21:28:56.947Z,5.05
2023-01-09T21:31:29.999Z,5.07
2023-01-09T21:33:57.055Z,5.07
2023-01-09T21:36:24.086Z,5.07
2023-01-09T21:38:54.296Z,5.07
2023-01-09T21:41:40.308Z,5.02
2023-01-09T21:44:30.610Z,5.05
2023-01-09T21:47:00.144Z,5.06
2023-01-09T21:49:29.702Z,5.08
2023-01-09T21:51:59.121Z,5.10
2023-01-09T21:54:26.505Z,5.10
2023-01-09T21:56:54.780Z,5.12
2023-01-09T21:59:21.866Z,5.20
2023-01-09T22:01:52.975Z,5.24
2023-01-09T22:04:22.457Z,5.25
2023-01-09T22:06:49.595Z,5.27
2023-01-09T22:09:16.676Z,5.21
2023-01-09T22:11:44.314Z,5.20
2023-01-09T22:14:16.390Z,5.24
2023-01-09T22:16:44.116Z,5.27
2023-01-09T22:19:18.534Z,5.27
2023-01-09T22:21:45.960Z,5.25
2023-01-09T22:24:14.837Z,5.19
2023-01-09T22:26:41.882Z,5.13
2023-01-09T22:29:08.767Z,5.11
2023-01-09T22:31:39.669Z,5.09
2023-01-09T22:34:06.937Z,5.09
2023-01-09T22:36:33.878Z,5.06
2023-01-09T22:39:01.425Z,5.02
2023-01-09T22:41:31.860Z,4.97
2023-01-09T22:43:59.194Z,4.92
2023-01-09T22:46:26.150Z,4.92
2023-01-09T22:48:53.114Z,4.88
2023-01-09T22:51:21.524Z,4.91
2023-01-09T22:53:48.890Z,4.89
2023-01-09T22:56:18.329Z,4.79
2023-01-09T22:58:49.317Z,4.82
2023-01-09T23:01:16.120Z,4.82
2023-01-09T23:03:43.016Z,4.82
2023-01-09T23:06:27.870Z,4.85
2023-01-09T23:08:54.764Z,4.86
2023-01-09T23:11:46.308Z,4.86
2023-01-09T23:14:13.453Z,4.81
2023-01-09T23:16:41.104Z,4.79
2023-01-09T23:19:09.942Z,4.78
2023-01-09T23:21:37.553Z,4.84
2023-01-09T23:24:07.030Z,4.86
2023-01-09T23:26:34.709Z,4.88
2023-01-09T23:29:02.196Z,4.94
2023-01-09T23:31:29.133Z,4.93
2023-01-09T23:33:56.077Z,4.94
2023-01-09T23:36:22.966Z,4.96
2023-01-09T23:38:49.954Z,4.96
2023-01-09T23:41:16.750Z,4.93
2023-01-09T23:43:44.542Z,4.82
2023-01-09T23:46:12.574Z,4.82
2023-01-09T23:48:39.542Z,4.86
2023-01-09T23:51:06.631Z,4.85
2023-01-09T23:53:33.471Z,4.82
2023-01-09T23:56:01.256Z,4.84
2023-01-09T23:58:28.067Z,4.87
